sensor_id;sensor_type;location;lat;lon;timestamp;P1;durP1;ratioP1;P2;durP2;ratioP2
12441;SDS011;6285;48.804;9.220;2022-11-15T00:01:06;10.82;;;7.90;;
12441;SDS011;6285;48.804;9.220;2022-11-15T00:03:35;12.88;;;7.80;;
12441;SDS011;6285;48.804;9.220;2022-11-15T00:06:02;10.52;;;8.07;;
12441;SDS011;6285;48.804;9.220;2022-11-15T00:08:30;17.27;;;8.73;;
12441;SDS011;6285;48.804;9.220;2022-11-15T00:10:58;11.48;;;7.50;;
12441;SDS011;6285;48.804;9.220;2022-11-15T00:13:26;10.27;;;7.50;;
12441;SDS011;6285;48.804;9.220;2022-11-15T00:15:55;10.93;;;8.02;;
12441;SDS011;6285;48.804;9.220;2022-11-15T00:18:23;11.90;;;8.43;;
12441;SDS011;6285;48.804;9.220;2022-11-15T00:20:50;11.10;;;7.65;;
12441;SDS011;6285;48.804;9.220;2022-11-15T00:23:17;12.30;;;7.50;;
12441;SDS011;6285;48.804;9.220;2022-11-15T00:25:44;12.98;;;7.75;;
12441;SDS011;6285;48.804;9.220;2022-11-15T00:28:11;11.20;;;7.82;;
12441;SDS011;6285;48.804;9.220;2022-11-15T00:30:38;10.32;;;7.47;;
12441;SDS011;6285;48.804;9.220;2022-11-15T00:33:08;12.13;;;7.68;;
12441;SDS011;6285;48.804;9.220;2022-11-15T00:35:35;11.20;;;7.40;;
12441;SDS011;6285;48.804;9.220;2022-11-15T00:38:02;11.13;;;7.65;;
12441;SDS011;6285;48.804;9.220;2022-11-15T00:40:29;11.00;;;8.02;;
12441;SDS011;6285;48.804;9.220;2022-11-15T00:42:57;11.65;;;8.05;;
12441;SDS011;6285;48.804;9.220;2022-11-15T00:45:24;13.35;;;8.27;;
12441;SDS011;6285;48.804;9.220;2022-11-15T00:47:52;13.43;;;8.32;;
12441;SDS011;6285;48.804;9.220;2022-11-15T00:50:20;13.15;;;9.10;;
12441;SDS011;6285;48.804;9.220;2022-11-15T00:52:47;12.27;;;8.98;;
12441;SDS011;6285;48.804;9.220;2022-11-15T00:55:15;12.20;;;8.45;;
12441;SDS011;6285;48.804;9.220;2022-11-15T00:57:42;12.70;;;8.07;;
12441;SDS011;6285;48.804;9.220;2022-11-15T01:00:10;13.15;;;8.93;;
12441;SDS011;6285;48.804;9.220;2022-11-15T01:02:38;13.35;;;8.73;;
12441;SDS011;6285;48.804;9.220;2022-11-15T01:05:05;11.57;;;8.18;;
12441;SDS011;6285;48.804;9.220;2022-11-15T01:07:34;12.13;;;8.50;;
12441;SDS011;6285;48.804;9.220;2022-11-15T01:10:01;12.23;;;8.80;;
12441;SDS011;6285;48.804;9.220;2022-11-15T01:12:28;12.27;;;9.18;;
12441;SDS011;6285;48.804;9.220;2022-11-15T01:14:55;12.77;;;9.38;;
12441;SDS011;6285;48.804;9.220;2022-11-15T01:17:22;11.20;;;8.20;;
12441;SDS011;6285;48.804;9.220;2022-11-15T01:19:50;15.00;;;8.68;;
12441;SDS011;6285;48.804;9.220;2022-11-15T01:22:17;10.15;;;7.55;;
12441;SDS011;6285;48.804;9.220;2022-11-15T01:24:46;15.05;;;8.82;;
12441;SDS011;6285;48.804;9.220;2022-11-15T01:27:13;15.52;;;9.57;;
12441;SDS011;6285;48.804;9.220;2022-11-15T01:29:40;13.98;;;9.00;;
12441;SDS011;6285;48.804;9.220;2022-11-15T01:32:07;11.77;;;8.85;;
12441;SDS011;6285;48.804;9.220;2022-11-15T01:34:34;14.85;;;9.32;;
12441;SDS011;6285;48.804;9.220;2022-11-15T01:37:01;13.13;;;9.40;;
12441;SDS011;6285;48.804;9.220;2022-11-15T01:39:28;13.45;;;9.05;;
12441;SDS011;6285;48.804;9.220;2022-11-15T01:41:57;14.40;;;9.55;;
12441;SDS011;6285;48.804;9.220;2022-11-15T01:44:41;13.98;;;9.75;;
12441;SDS011;6285;48.804;9.220;2022-11-15T01:47:09;14.65;;;9.30;;
12441;SDS011;6285;48.804;9.220;2022-11-15T01:49:38;15.15;;;10.73;;
12441;SDS011;6285;48.804;9.220;2022-11-15T01:52:07;13.88;;;10.60;;
12441;SDS011;6285;48.804;9.220;2022-11-15T01:54:35;15.75;;;10.48;;
12441;SDS011;6285;48.804;9.220;2022-11-15T01:57:05;16.67;;;10.73;;
12441;SDS011;6285;48.804;9.220;2022-11-15T01:59:36;14.88;;;10.40;;
12441;SDS011;6285;48.804;9.220;2022-11-15T02:02:04;14.75;;;9.88;;
12441;SDS011;6285;48.804;9.220;2022-11-15T02:04:39;16.75;;;9.60;;
12441;SDS011;6285;48.804;9.220;2022-11-15T02:07:08;14.93;;;9.88;;
12441;SDS011;6285;48.804;9.220;2022-11-15T02:09:36;15.98;;;9.77;;
12441;SDS011;6285;48.804;9.220;2022-11-15T02:12:05;14.95;;;9.02;;
12441;SDS011;6285;48.804;9.220;2022-11-15T02:14:33;13.75;;;8.85;;
12441;SDS011;6285;48.804;9.220;2022-11-15T02:17:02;13.43;;;9.27;;
12441;SDS011;6285;48.804;9.220;2022-11-15T02:19:39;13.18;;;9.35;;
12441;SDS011;6285;48.804;9.220;2022-11-15T02:22:10;15.52;;;10.15;;
12441;SDS011;6285;48.804;9.220;2022-11-15T02:24:49;16.65;;;9.68;;
12441;SDS011;6285;48.804;9.220;2022-11-15T02:30:34;16.77;;;10.77;;
12441;SDS011;6285;48.804;9.220;2022-11-15T02:33:06;17.25;;;10.32;;
12441;SDS011;6285;48.804;9.220;2022-11-15T02:35:40;13.60;;;9.75;;
12441;SDS011;6285;48.804;9.220;2022-11-15T02:38:12;15.35;;;10.40;;
12441;SDS011;6285;48.804;9.220;2022-11-15T02:40:45;14.55;;;9.98;;
12441;SDS011;6285;48.804;9.220;2022-11-15T02:43:14;18.00;;;10.95;;
12441;SDS011;6285;48.804;9.220;2022-11-15T02:46:03;15.18;;;9.55;;
12441;SDS011;6285;48.804;9.220;2022-11-15T02:48:33;14.93;;;8.60;;
12441;SDS011;6285;48.804;9.220;2022-11-15T02:51:00;12.13;;;7.68;;
12441;SDS011;6285;48.804;9.220;2022-11-15T02:53:28;13.30;;;8.13;;
12441;SDS011;6285;48.804;9.220;2022-11-15T02:55:55;11.75;;;7.65;;
12441;SDS011;6285;48.804;9.220;2022-11-15T02:58:28;10.50;;;7.20;;
12441;SDS011;6285;48.804;9.220;2022-11-15T03:01:00;11.13;;;8.07;;
12441;SDS011;6285;48.804;9.220;2022-11-15T03:03:36;10.68;;;7.68;;
12441;SDS011;6285;48.804;9.220;2022-11-15T03:06:09;9.90;;;7.50;;
12441;SDS011;6285;48.804;9.220;2022-11-15T03:08:40;12.15;;;8.77;;
12441;SDS011;6285;48.804;9.220;2022-11-15T03:11:10;11.77;;;7.75;;
12441;SDS011;6285;48.804;9.220;2022-11-15T03:13:39;10.18;;;7.88;;
12441;SDS011;6285;48.804;9.220;2022-11-15T03:16:08;11.50;;;7.57;;
12441;SDS011;6285;48.804;9.220;2022-11-15T03:18:38;13.35;;;8.05;;
12441;SDS011;6285;48.804;9.220;2022-11-15T03:21:08;11.35;;;8.30;;
12441;SDS011;6285;48.804;9.220;2022-11-15T03:23:36;12.30;;;8.52;;
12441;SDS011;6285;48.804;9.220;2022-11-15T03:26:05;12.07;;;8.63;;
12441;SDS011;6285;48.804;9.220;2022-11-15T03:28:35;12.25;;;8.18;;
12441;SDS011;6285;48.804;9.220;2022-11-15T03:31:03;13.15;;;8.15;;
12441;SDS011;6285;48.804;9.220;2022-11-15T03:33:53;12.80;;;8.00;;
12441;SDS011;6285;48.804;9.220;2022-11-15T03:36:21;10.50;;;7.70;;
12441;SDS011;6285;48.804;9.220;2022-11-15T03:38:49;13.50;;;7.82;;
12441;SDS011;6285;48.804;9.220;2022-11-15T03:41:19;10.48;;;7.65;;
12441;SDS011;6285;48.804;9.220;2022-11-15T03:43:50;9.45;;;7.30;;
12441;SDS011;6285;48.804;9.220;2022-11-15T03:46:21;9.98;;;7.38;;
12441;SDS011;6285;48.804;9.220;2022-11-15T03:48:50;10.35;;;7.13;;
12441;SDS011;6285;48.804;9.220;2022-11-15T03:51:20;16.48;;;8.40;;
12441;SDS011;6285;48.804;9.220;2022-11-15T03:53:47;11.07;;;7.93;;
12441;SDS011;6285;48.804;9.220;2022-11-15T03:56:14;13.27;;;8.50;;
12441;SDS011;6285;48.804;9.220;2022-11-15T03:58:41;11.45;;;7.78;;
12441;SDS011;6285;48.804;9.220;2022-11-15T04:01:08;12.05;;;7.95;;
12441;SDS011;6285;48.804;9.220;2022-11-15T04:03:35;13.65;;;9.18;;
12441;SDS011;6285;48.804;9.220;2022-11-15T04:06:02;12.50;;;8.88;;
12441;SDS011;6285;48.804;9.220;2022-11-15T04:08:31;14.05;;;9.30;;
12441;SDS011;6285;48.804;9.220;2022-11-15T04:10:58;10.52;;;7.95;;
12441;SDS011;6285;48.804;9.220;2022-11-15T04:13:25;10.27;;;7.50;;
12441;SDS011;6285;48.804;9.220;2022-11-15T04:15:52;15.88;;;8.27;;
12441;SDS011;6285;48.804;9.220;2022-11-15T04:18:20;10.35;;;7.95;;
12441;SDS011;6285;48.804;9.220;2022-11-15T04:20:47;13.10;;;8.27;;
12441;SDS011;6285;48.804;9.220;2022-11-15T04:23:33;12.27;;;8.02;;
12441;SDS011;6285;48.804;9.220;2022-11-15T04:26:26;11.65;;;8.23;;
12441;SDS011;6285;48.804;9.220;2022-11-15T04:28:53;13.23;;;8.75;;
12441;SDS011;6285;48.804;9.220;2022-11-15T04:31:38;14.40;;;9.52;;
12441;SDS011;6285;48.804;9.220;2022-11-15T04:34:05;14.95;;;8.57;;
12441;SDS011;6285;48.804;9.220;2022-11-15T04:36:32;12.00;;;9.13;;
12441;SDS011;6285;48.804;9.220;2022-11-15T04:39:18;12.23;;;9.05;;
12441;SDS011;6285;48.804;9.220;2022-11-15T04:41:46;13.77;;;9.02;;
12441;SDS011;6285;48.804;9.220;2022-11-15T04:44:13;12.60;;;9.20;;
12441;SDS011;6285;48.804;9.220;2022-11-15T04:46:41;10.95;;;8.90;;
12441;SDS011;6285;48.804;9.220;2022-11-15T04:49:08;12.52;;;9.23;;
12441;SDS011;6285;48.804;9.220;2022-11-15T04:51:35;13.68;;;8.63;;
12441;SDS011;6285;48.804;9.220;2022-11-15T04:54:02;10.38;;;7.40;;
12441;SDS011;6285;48.804;9.220;2022-11-15T04:56:31;10.23;;;7.63;;
12441;SDS011;6285;48.804;9.220;2022-11-15T04:58:58;12.90;;;8.27;;
12441;SDS011;6285;48.804;9.220;2022-11-15T05:01:25;10.57;;;7.70;;
12441;SDS011;6285;48.804;9.220;2022-11-15T05:03:52;11.75;;;7.85;;
12441;SDS011;6285;48.804;9.220;2022-11-15T05:06:37;12.48;;;7.60;;
12441;SDS011;6285;48.804;9.220;2022-11-15T05:09:04;11.32;;;7.82;;
12441;SDS011;6285;48.804;9.220;2022-11-15T05:11:33;11.18;;;8.07;;
12441;SDS011;6285;48.804;9.220;2022-11-15T05:14:00;10.00;;;7.65;;
12441;SDS011;6285;48.804;9.220;2022-11-15T05:16:27;12.55;;;8.43;;
12441;SDS011;6285;48.804;9.220;2022-11-15T05:18:54;13.93;;;7.43;;
12441;SDS011;6285;48.804;9.220;2022-11-15T05:21:21;10.95;;;7.70;;
12441;SDS011;6285;48.804;9.220;2022-11-15T05:23:49;15.13;;;8.60;;
12441;SDS011;6285;48.804;9.220;2022-11-15T05:26:16;11.18;;;8.30;;
12441;SDS011;6285;48.804;9.220;2022-11-15T05:28:45;12.98;;;8.38;;
12441;SDS011;6285;48.804;9.220;2022-11-15T05:31:13;10.48;;;8.27;;
12441;SDS011;6285;48.804;9.220;2022-11-15T05:33:41;12.73;;;8.85;;
12441;SDS011;6285;48.804;9.220;2022-11-15T05:36:09;12.77;;;8.45;;
12441;SDS011;6285;48.804;9.220;2022-11-15T05:38:39;14.35;;;9.13;;
12441;SDS011;6285;48.804;9.220;2022-11-15T05:41:06;15.30;;;9.15;;
12441;SDS011;6285;48.804;9.220;2022-11-15T05:43:34;14.18;;;9.57;;
12441;SDS011;6285;48.804;9.220;2022-11-15T05:46:03;16.65;;;9.95;;
12441;SDS011;6285;48.804;9.220;2022-11-15T05:48:31;18.05;;;10.68;;
12441;SDS011;6285;48.804;9.220;2022-11-15T05:50:58;17.67;;;10.00;;
12441;SDS011;6285;48.804;9.220;2022-11-15T05:53:26;16.42;;;10.30;;
12441;SDS011;6285;48.804;9.220;2022-11-15T05:55:53;13.73;;;9.55;;
12441;SDS011;6285;48.804;9.220;2022-11-15T05:58:20;12.30;;;9.38;;
12441;SDS011;6285;48.804;9.220;2022-11-15T06:00:47;17.40;;;9.43;;
12441;SDS011;6285;48.804;9.220;2022-11-15T06:03:16;14.07;;;8.60;;
12441;SDS011;6285;48.804;9.220;2022-11-15T06:05:43;13.45;;;9.80;;
12441;SDS011;6285;48.804;9.220;2022-11-15T06:08:10;15.10;;;8.93;;
12441;SDS011;6285;48.804;9.220;2022-11-15T06:10:37;13.85;;;8.57;;
12441;SDS011;6285;48.804;9.220;2022-11-15T06:13:05;12.60;;;8.55;;
12441;SDS011;6285;48.804;9.220;2022-11-15T06:15:32;14.93;;;8.95;;
12441;SDS011;6285;48.804;9.220;2022-11-15T06:17:59;13.88;;;9.15;;
12441;SDS011;6285;48.804;9.220;2022-11-15T06:20:28;13.15;;;8.10;;
12441;SDS011;6285;48.804;9.220;2022-11-15T06:22:56;13.00;;;7.57;;
12441;SDS011;6285;48.804;9.220;2022-11-15T06:25:24;11.73;;;8.32;;
12441;SDS011;6285;48.804;9.220;2022-11-15T06:27:51;13.88;;;8.90;;
12441;SDS011;6285;48.804;9.220;2022-11-15T06:30:18;12.82;;;8.85;;
12441;SDS011;6285;48.804;9.220;2022-11-15T06:32:46;14.82;;;8.85;;
12441;SDS011;6285;48.804;9.220;2022-11-15T06:35:13;11.60;;;8.65;;
12441;SDS011;6285;48.804;9.220;2022-11-15T06:37:43;12.80;;;8.52;;
12441;SDS011;6285;48.804;9.220;2022-11-15T06:40:10;13.90;;;8.48;;
12441;SDS011;6285;48.804;9.220;2022-11-15T06:42:38;15.40;;;8.73;;
12441;SDS011;6285;48.804;9.220;2022-11-15T06:45:05;17.40;;;9.30;;
12441;SDS011;6285;48.804;9.220;2022-11-15T06:47:33;16.70;;;9.40;;
12441;SDS011;6285;48.804;9.220;2022-11-15T06:50:00;18.73;;;10.15;;
12441;SDS011;6285;48.804;9.220;2022-11-15T06:52:27;17.05;;;10.85;;
12441;SDS011;6285;48.804;9.220;2022-11-15T06:54:59;17.73;;;9.52;;
12441;SDS011;6285;48.804;9.220;2022-11-15T06:57:26;18.13;;;9.95;;
12441;SDS011;6285;48.804;9.220;2022-11-15T06:59:53;19.05;;;9.63;;
12441;SDS011;6285;48.804;9.220;2022-11-15T07:03:16;16.55;;;10.10;;
12441;SDS011;6285;48.804;9.220;2022-11-15T07:05:34;14.55;;;8.95;;
12441;SDS011;6285;48.804;9.220;2022-11-15T07:08:01;20.40;;;10.38;;
12441;SDS011;6285;48.804;9.220;2022-11-15T07:10:36;12.30;;;9.15;;
12441;SDS011;6285;48.804;9.220;2022-11-15T07:13:04;18.33;;;9.77;;
12441;SDS011;6285;48.804;9.220;2022-11-15T07:15:36;15.27;;;9.70;;
12441;SDS011;6285;48.804;9.220;2022-11-15T07:18:06;16.58;;;8.85;;
12441;SDS011;6285;48.804;9.220;2022-11-15T07:20:47;13.20;;;9.27;;
12441;SDS011;6285;48.804;9.220;2022-11-15T07:23:17;13.88;;;8.65;;
12441;SDS011;6285;48.804;9.220;2022-11-15T07:25:46;12.05;;;8.93;;
12441;SDS011;6285;48.804;9.220;2022-11-15T07:28:13;16.42;;;8.65;;
12441;SDS011;6285;48.804;9.220;2022-11-15T07:30:40;10.82;;;8.18;;
12441;SDS011;6285;48.804;9.220;2022-11-15T07:33:07;15.45;;;8.70;;
12441;SDS011;6285;48.804;9.220;2022-11-15T07:35:34;15.57;;;8.50;;
12441;SDS011;6285;48.804;9.220;2022-11-15T07:38:02;19.35;;;8.45;;
12441;SDS011;6285;48.804;9.220;2022-11-15T07:42:26;15.25;;;9.32;;
12441;SDS011;6285;48.804;9.220;2022-11-15T07:45:11;17.05;;;8.80;;
12441;SDS011;6285;48.804;9.220;2022-11-15T07:47:38;19.27;;;8.82;;
12441;SDS011;6285;48.804;9.220;2022-11-15T07:50:05;15.55;;;8.82;;
12441;SDS011;6285;48.804;9.220;2022-11-15T07:52:33;15.45;;;8.73;;
12441;SDS011;6285;48.804;9.220;2022-11-15T07:55:00;15.65;;;8.90;;
12441;SDS011;6285;48.804;9.220;2022-11-15T07:57:29;15.45;;;8.52;;
12441;SDS011;6285;48.804;9.220;2022-11-15T07:59:56;12.25;;;8.38;;
12441;SDS011;6285;48.804;9.220;2022-11-15T08:02:23;15.10;;;8.18;;
12441;SDS011;6285;48.804;9.220;2022-11-15T08:04:50;10.85;;;7.88;;
12441;SDS011;6285;48.804;9.220;2022-11-15T08:07:17;11.25;;;7.85;;
12441;SDS011;6285;48.804;9.220;2022-11-15T08:09:44;14.77;;;7.90;;
12441;SDS011;6285;48.804;9.220;2022-11-15T08:12:11;9.35;;;6.65;;
12441;SDS011;6285;48.804;9.220;2022-11-15T08:14:40;10.95;;;7.45;;
12441;SDS011;6285;48.804;9.220;2022-11-15T08:17:07;10.05;;;7.53;;
12441;SDS011;6285;48.804;9.220;2022-11-15T08:19:34;13.02;;;7.50;;
12441;SDS011;6285;48.804;9.220;2022-11-15T08:22:01;9.20;;;7.20;;
12441;SDS011;6285;48.804;9.220;2022-11-15T08:24:28;14.55;;;7.32;;
12441;SDS011;6285;48.804;9.220;2022-11-15T08:26:55;12.73;;;7.03;;
12441;SDS011;6285;48.804;9.220;2022-11-15T08:29:22;12.73;;;6.65;;
12441;SDS011;6285;48.804;9.220;2022-11-15T08:31:51;14.55;;;7.80;;
12441;SDS011;6285;48.804;9.220;2022-11-15T08:34:20;13.65;;;7.00;;
12441;SDS011;6285;48.804;9.220;2022-11-15T08:36:47;12.40;;;6.90;;
12441;SDS011;6285;48.804;9.220;2022-11-15T08:39:14;13.07;;;7.28;;
12441;SDS011;6285;48.804;9.220;2022-11-15T08:41:41;9.77;;;6.55;;
12441;SDS011;6285;48.804;9.220;2022-11-15T08:44:09;11.50;;;6.88;;
12441;SDS011;6285;48.804;9.220;2022-11-15T08:59:40;9.43;;;7.07;;
12441;SDS011;6285;48.804;9.220;2022-11-15T09:02:10;9.38;;;6.78;;
12441;SDS011;6285;48.804;9.220;2022-11-15T09:04:39;11.20;;;6.43;;
12441;SDS011;6285;48.804;9.220;2022-11-15T09:07:06;9.73;;;5.78;;
12441;SDS011;6285;48.804;9.220;2022-11-15T09:09:33;8.35;;;5.60;;
12441;SDS011;6285;48.804;9.220;2022-11-15T09:12:00;8.25;;;4.75;;
12441;SDS011;6285;48.804;9.220;2022-11-15T09:14:27;9.52;;;5.30;;
12441;SDS011;6285;48.804;9.220;2022-11-15T09:16:56;8.02;;;4.90;;
12441;SDS011;6285;48.804;9.220;2022-11-15T09:19:23;9.52;;;5.18;;
12441;SDS011;6285;48.804;9.220;2022-11-15T09:21:50;11.85;;;5.57;;
12441;SDS011;6285;48.804;9.220;2022-11-15T09:24:17;8.57;;;5.38;;
12441;SDS011;6285;48.804;9.220;2022-11-15T09:26:44;7.45;;;4.68;;
12441;SDS011;6285;48.804;9.220;2022-11-15T09:29:11;8.93;;;5.53;;
12441;SDS011;6285;48.804;9.220;2022-11-15T09:31:38;9.63;;;5.82;;
12441;SDS011;6285;48.804;9.220;2022-11-15T09:34:06;10.75;;;6.00;;
12441;SDS011;6285;48.804;9.220;2022-11-15T09:36:33;9.82;;;5.88;;
12441;SDS011;6285;48.804;9.220;2022-11-15T09:39:00;11.90;;;6.30;;
12441;SDS011;6285;48.804;9.220;2022-11-15T09:41:37;8.75;;;5.57;;
12441;SDS011;6285;48.804;9.220;2022-11-15T09:44:24;7.57;;;5.30;;
12441;SDS011;6285;48.804;9.220;2022-11-15T09:47:06;12.05;;;5.97;;
12441;SDS011;6285;48.804;9.220;2022-11-15T09:49:37;11.27;;;5.60;;
12441;SDS011;6285;48.804;9.220;2022-11-15T09:52:04;6.68;;;4.70;;
12441;SDS011;6285;48.804;9.220;2022-11-15T09:54:32;9.32;;;5.40;;
12441;SDS011;6285;48.804;9.220;2022-11-15T09:57:03;8.80;;;5.40;;
12441;SDS011;6285;48.804;9.220;2022-11-15T10:02:23;10.52;;;5.95;;
12441;SDS011;6285;48.804;9.220;2022-11-15T10:04:56;11.75;;;5.80;;
12441;SDS011;6285;48.804;9.220;2022-11-15T10:07:25;10.88;;;5.60;;
12441;SDS011;6285;48.804;9.220;2022-11-15T10:09:58;9.95;;;4.90;;
12441;SDS011;6285;48.804;9.220;2022-11-15T10:12:29;8.40;;;5.90;;
12441;SDS011;6285;48.804;9.220;2022-11-15T10:14:58;9.05;;;5.38;;
12441;SDS011;6285;48.804;9.220;2022-11-15T10:17:38;10.98;;;5.82;;
12441;SDS011;6285;48.804;9.220;2022-11-15T10:20:12;11.27;;;6.18;;
12441;SDS011;6285;48.804;9.220;2022-11-15T10:22:44;13.55;;;6.10;;
12441;SDS011;6285;48.804;9.220;2022-11-15T10:25:19;8.80;;;5.65;;
12441;SDS011;6285;48.804;9.220;2022-11-15T10:27:47;8.25;;;5.60;;
12441;SDS011;6285;48.804;9.220;2022-11-15T10:30:19;12.52;;;5.32;;
12441;SDS011;6285;48.804;9.220;2022-11-15T10:32:46;9.23;;;5.45;;
12441;SDS011;6285;48.804;9.220;2022-11-15T10:35:20;11.52;;;6.30;;
12441;SDS011;6285;48.804;9.220;2022-11-15T10:37:47;8.70;;;5.75;;
12441;SDS011;6285;48.804;9.220;2022-11-15T10:40:16;14.57;;;6.20;;
12441;SDS011;6285;48.804;9.220;2022-11-15T10:42:45;12.68;;;6.50;;
12441;SDS011;6285;48.804;9.220;2022-11-15T10:45:26;11.57;;;6.00;;
12441;SDS011;6285;48.804;9.220;2022-11-15T10:47:54;11.57;;;6.38;;
12441;SDS011;6285;48.804;9.220;2022-11-15T10:50:28;9.82;;;5.60;;
12441;SDS011;6285;48.804;9.220;2022-11-15T10:52:55;9.65;;;5.10;;
12441;SDS011;6285;48.804;9.220;2022-11-15T10:55:24;11.90;;;6.03;;
12441;SDS011;6285;48.804;9.220;2022-11-15T10:57:53;8.90;;;4.80;;
12441;SDS011;6285;48.804;9.220;2022-11-15T11:00:27;10.57;;;5.45;;
12441;SDS011;6285;48.804;9.220;2022-11-15T11:02:57;8.20;;;5.25;;
12441;SDS011;6285;48.804;9.220;2022-11-15T11:05:25;10.00;;;4.75;;
12441;SDS011;6285;48.804;9.220;2022-11-15T11:07:57;8.25;;;4.95;;
12441;SDS011;6285;48.804;9.220;2022-11-15T11:10:24;10.10;;;5.22;;
12441;SDS011;6285;48.804;9.220;2022-11-15T11:12:51;11.10;;;5.38;;
12441;SDS011;6285;48.804;9.220;2022-11-15T11:15:18;10.35;;;5.65;;
12441;SDS011;6285;48.804;9.220;2022-11-15T11:17:51;9.55;;;4.70;;
12441;SDS011;6285;48.804;9.220;2022-11-15T11:20:23;7.22;;;4.60;;
12441;SDS011;6285;48.804;9.220;2022-11-15T11:23:01;8.68;;;4.75;;
12441;SDS011;6285;48.804;9.220;2022-11-15T11:26:31;6.22;;;4.57;;
12441;SDS011;6285;48.804;9.220;2022-11-15T11:29:02;8.70;;;4.20;;
12441;SDS011;6285;48.804;9.220;2022-11-15T11:31:38;8.23;;;5.20;;
12441;SDS011;6285;48.804;9.220;2022-11-15T11:34:13;8.88;;;4.57;;
12441;SDS011;6285;48.804;9.220;2022-11-15T11:39:20;9.43;;;4.50;;
12441;SDS011;6285;48.804;9.220;2022-11-15T11:41:53;8.27;;;4.53;;
12441;SDS011;6285;48.804;9.220;2022-11-15T11:44:28;8.20;;;4.90;;
12441;SDS011;6285;48.804;9.220;2022-11-15T11:46:59;10.07;;;4.78;;
12441;SDS011;6285;48.804;9.220;2022-11-15T11:49:28;8.73;;;4.45;;
12441;SDS011;6285;48.804;9.220;2022-11-15T11:51:59;8.75;;;4.95;;
12441;SDS011;6285;48.804;9.220;2022-11-15T11:54:29;10.10;;;4.65;;
12441;SDS011;6285;48.804;9.220;2022-11-15T11:57:02;7.82;;;4.10;;
12441;SDS011;6285;48.804;9.220;2022-11-15T11:59:33;6.70;;;4.10;;
12441;SDS011;6285;48.804;9.220;2022-11-15T12:02:08;10.02;;;4.57;;
12441;SDS011;6285;48.804;9.220;2022-11-15T12:04:38;7.47;;;4.22;;
12441;SDS011;6285;48.804;9.220;2022-11-15T12:07:08;8.02;;;4.07;;
12441;SDS011;6285;48.804;9.220;2022-11-15T12:09:41;8.75;;;4.00;;
12441;SDS011;6285;48.804;9.220;2022-11-15T12:12:13;7.40;;;3.97;;
12441;SDS011;6285;48.804;9.220;2022-11-15T12:14:45;11.30;;;4.35;;
12441;SDS011;6285;48.804;9.220;2022-11-15T12:17:13;7.85;;;4.55;;
12441;SDS011;6285;48.804;9.220;2022-11-15T12:19:40;6.70;;;4.70;;
12441;SDS011;6285;48.804;9.220;2022-11-15T12:22:10;12.80;;;4.93;;
12441;SDS011;6285;48.804;9.220;2022-11-15T12:24:40;10.40;;;5.35;;
12441;SDS011;6285;48.804;9.220;2022-11-15T12:27:12;10.73;;;5.63;;
12441;SDS011;6285;48.804;9.220;2022-11-15T12:29:43;8.80;;;5.05;;
12441;SDS011;6285;48.804;9.220;2022-11-15T12:32:16;11.25;;;6.20;;
12441;SDS011;6285;48.804;9.220;2022-11-15T12:34:45;14.25;;;6.00;;
12441;SDS011;6285;48.804;9.220;2022-11-15T12:40:24;11.75;;;5.57;;
12441;SDS011;6285;48.804;9.220;2022-11-15T12:45:41;12.82;;;6.95;;
12441;SDS011;6285;48.804;9.220;2022-11-15T12:50:55;8.27;;;5.50;;
12441;SDS011;6285;48.804;9.220;2022-11-15T12:53:26;8.93;;;5.30;;
12441;SDS011;6285;48.804;9.220;2022-11-15T12:56:08;10.73;;;5.55;;
12441;SDS011;6285;48.804;9.220;2022-11-15T12:58:41;10.38;;;5.35;;
12441;SDS011;6285;48.804;9.220;2022-11-15T13:01:10;9.88;;;5.47;;
12441;SDS011;6285;48.804;9.220;2022-11-15T13:06:37;12.52;;;5.60;;
12441;SDS011;6285;48.804;9.220;2022-11-15T13:09:49;13.57;;;6.63;;
12441;SDS011;6285;48.804;9.220;2022-11-15T13:12:07;10.23;;;6.47;;
12441;SDS011;6285;48.804;9.220;2022-11-15T13:14:47;13.20;;;7.00;;
12441;SDS011;6285;48.804;9.220;2022-11-15T13:17:17;14.65;;;6.53;;
12441;SDS011;6285;48.804;9.220;2022-11-15T13:19:49;11.25;;;6.15;;
12441;SDS011;6285;48.804;9.220;2022-11-15T13:22:20;12.90;;;7.25;;
12441;SDS011;6285;48.804;9.220;2022-11-15T13:25:12;16.25;;;7.65;;
12441;SDS011;6285;48.804;9.220;2022-11-15T13:27:45;14.43;;;6.50;;
12441;SDS011;6285;48.804;9.220;2022-11-15T13:30:13;12.27;;;6.72;;
12441;SDS011;6285;48.804;9.220;2022-11-15T13:32:42;12.30;;;6.05;;
12441;SDS011;6285;48.804;9.220;2022-11-15T13:35:09;10.05;;;6.28;;
12441;SDS011;6285;48.804;9.220;2022-11-15T13:37:36;9.68;;;5.85;;
12441;SDS011;6285;48.804;9.220;2022-11-15T13:40:25;12.32;;;6.15;;
12441;SDS011;6285;48.804;9.220;2022-11-15T13:42:56;11.35;;;5.78;;
12441;SDS011;6285;48.804;9.220;2022-11-15T13:45:24;11.50;;;5.72;;
12441;SDS011;6285;48.804;9.220;2022-11-15T13:47:53;14.82;;;6.43;;
12441;SDS011;6285;48.804;9.220;2022-11-15T13:50:21;14.38;;;6.25;;
12441;SDS011;6285;48.804;9.220;2022-11-15T13:52:49;11.30;;;6.35;;
12441;SDS011;6285;48.804;9.220;2022-11-15T13:55:17;10.95;;;5.80;;
12441;SDS011;6285;48.804;9.220;2022-11-15T14:00:23;15.45;;;6.90;;
12441;SDS011;6285;48.804;9.220;2022-11-15T14:02:51;15.88;;;6.63;;
12441;SDS011;6285;48.804;9.220;2022-11-15T14:05:19;13.75;;;6.82;;
12441;SDS011;6285;48.804;9.220;2022-11-15T14:07:52;14.10;;;7.60;;
12441;SDS011;6285;48.804;9.220;2022-11-15T14:10:25;14.80;;;7.22;;
12441;SDS011;6285;48.804;9.220;2022-11-15T14:12:52;13.23;;;7.15;;
12441;SDS011;6285;48.804;9.220;2022-11-15T14:15:25;13.10;;;7.85;;
12441;SDS011;6285;48.804;9.220;2022-11-15T14:17:55;14.02;;;8.90;;
12441;SDS011;6285;48.804;9.220;2022-11-15T14:20:26;15.95;;;7.75;;
12441;SDS011;6285;48.804;9.220;2022-11-15T14:22:56;13.23;;;7.85;;
12441;SDS011;6285;48.804;9.220;2022-11-15T14:25:24;17.02;;;9.35;;
12441;SDS011;6285;48.804;9.220;2022-11-15T14:28:11;18.77;;;10.10;;
12441;SDS011;6285;48.804;9.220;2022-11-15T14:30:56;14.43;;;8.02;;
12441;SDS011;6285;48.804;9.220;2022-11-15T14:33:23;13.13;;;8.00;;
12441;SDS011;6285;48.804;9.220;2022-11-15T14:35:53;7.90;;;6.53;;
12441;SDS011;6285;48.804;9.220;2022-11-15T14:38:22;9.95;;;6.38;;
12441;SDS011;6285;48.804;9.220;2022-11-15T14:40:49;9.23;;;6.10;;
12441;SDS011;6285;48.804;9.220;2022-11-15T14:43:16;8.10;;;5.38;;
12441;SDS011;6285;48.804;9.220;2022-11-15T14:45:43;11.98;;;6.25;;
12441;SDS011;6285;48.804;9.220;2022-11-15T14:48:12;11.55;;;6.35;;
12441;SDS011;6285;48.804;9.220;2022-11-15T14:50:39;9.85;;;6.68;;
12441;SDS011;6285;48.804;9.220;2022-11-15T14:53:06;10.95;;;6.85;;
12441;SDS011;6285;48.804;9.220;2022-11-15T14:55:34;11.60;;;6.80;;
12441;SDS011;6285;48.804;9.220;2022-11-15T14:58:01;12.43;;;7.57;;
12441;SDS011;6285;48.804;9.220;2022-11-15T15:00:29;9.07;;;6.75;;
12441;SDS011;6285;48.804;9.220;2022-11-15T15:02:56;13.68;;;7.55;;
12441;SDS011;6285;48.804;9.220;2022-11-15T15:05:25;11.13;;;7.28;;
12441;SDS011;6285;48.804;9.220;2022-11-15T15:07:52;11.90;;;7.25;;
12441;SDS011;6285;48.804;9.220;2022-11-15T15:10:20;13.43;;;7.00;;
12441;SDS011;6285;48.804;9.220;2022-11-15T15:12:47;14.38;;;7.68;;
12441;SDS011;6285;48.804;9.220;2022-11-15T15:15:15;14.55;;;8.00;;
12441;SDS011;6285;48.804;9.220;2022-11-15T15:17:42;16.40;;;10.10;;
12441;SDS011;6285;48.804;9.220;2022-11-15T15:20:10;24.15;;;11.88;;
12441;SDS011;6285;48.804;9.220;2022-11-15T15:22:38;16.13;;;9.50;;
12441;SDS011;6285;48.804;9.220;2022-11-15T15:25:18;9.95;;;5.55;;
12441;SDS011;6285;48.804;9.220;2022-11-15T15:27:46;10.07;;;6.38;;
12441;SDS011;6285;48.804;9.220;2022-11-15T15:30:13;11.15;;;6.25;;
12441;SDS011;6285;48.804;9.220;2022-11-15T15:32:40;10.85;;;6.53;;
12441;SDS011;6285;48.804;9.220;2022-11-15T15:35:10;11.68;;;6.30;;
12441;SDS011;6285;48.804;9.220;2022-11-15T15:37:39;7.93;;;5.65;;
12441;SDS011;6285;48.804;9.220;2022-11-15T15:40:10;9.18;;;6.22;;
12441;SDS011;6285;48.804;9.220;2022-11-15T15:42:38;10.60;;;6.45;;
12441;SDS011;6285;48.804;9.220;2022-11-15T15:45:06;10.68;;;6.28;;